sensor_id;sensor_type;location;lat;lon;timestamp;P1;durP1;ratioP1;P2;durP2;ratioP2
69347;SDS011;56497;45.058;41.926;2022-08-20T00:00:20;12.82;;;5.10;;
69347;SDS011;56497;45.058;41.926;2022-08-20T00:00:53;14.55;;;5.20;;
69347;SDS011;56497;45.058;41.926;2022-08-20T00:01:24;15.48;;;5.25;;
69347;SDS011;56497;45.058;41.926;2022-08-20T00:01:55;12.70;;;5.25;;
69347;SDS011;56497;45.058;41.926;2022-08-20T00:02:26;13.90;;;5.13;;
69347;SDS011;56497;45.058;41.926;2022-08-20T00:03:00;14.73;;;5.35;;
69347;SDS011;56497;45.058;41.926;2022-08-20T00:03:38;13.90;;;5.18;;
69347;SDS011;56497;45.058;41.926;2022-08-20T00:04:10;13.25;;;4.82;;
69347;SDS011;56497;45.058;41.926;2022-08-20T00:04:43;15.52;;;5.25;;
69347;SDS011;56497;45.058;41.926;2022-08-20T00:05:14;11.60;;;4.97;;
69347;SDS011;56497;45.058;41.926;2022-08-20T00:05:50;15.43;;;4.95;;
69347;SDS011;56497;45.058;41.926;2022-08-20T00:06:24;13.60;;;5.15;;
69347;SDS011;56497;45.058;41.926;2022-08-20T00:06:54;13.05;;;4.80;;
69347;SDS011;56497;45.058;41.926;2022-08-20T00:07:25;15.77;;;5.60;;
69347;SDS011;56497;45.058;41.926;2022-08-20T00:07:56;13.15;;;5.35;;
69347;SDS011;56497;45.058;41.926;2022-08-20T00:08:28;12.90;;;4.90;;
69347;SDS011;56497;45.058;41.926;2022-08-20T00:08:58;15.55;;;5.03;;
69347;SDS011;56497;45.058;41.926;2022-08-20T00:09:29;16.02;;;6.82;;
69347;SDS011;56497;45.058;41.926;2022-08-20T00:10:00;18.50;;;9.02;;
69347;SDS011;56497;45.058;41.926;2022-08-20T00:10:31;13.32;;;5.90;;
69347;SDS011;56497;45.058;41.926;2022-08-20T00:11:05;18.17;;;6.82;;
69347;SDS011;56497;45.058;41.926;2022-08-20T00:11:38;15.88;;;8.15;;
69347;SDS011;56497;45.058;41.926;2022-08-20T00:12:10;13.10;;;5.65;;
69347;SDS011;56497;45.058;41.926;2022-08-20T00:12:43;13.52;;;5.97;;
69347;SDS011;56497;45.058;41.926;2022-08-20T00:13:16;18.80;;;9.25;;
69347;SDS011;56497;45.058;41.926;2022-08-20T00:13:52;13.45;;;5.45;;
69347;SDS011;56497;45.058;41.926;2022-08-20T00:14:25;17.90;;;6.72;;
69347;SDS011;56497;45.058;41.926;2022-08-20T00:14:56;14.70;;;5.70;;
69347;SDS011;56497;45.058;41.926;2022-08-20T00:15:29;12.63;;;5.78;;
69347;SDS011;56497;45.058;41.926;2022-08-20T00:16:02;14.32;;;5.40;;
69347;SDS011;56497;45.058;41.926;2022-08-20T00:16:35;15.45;;;5.53;;
69347;SDS011;56497;45.058;41.926;2022-08-20T00:17:09;15.20;;;5.40;;
69347;SDS011;56497;45.058;41.926;2022-08-20T00:17:40;14.40;;;5.78;;
69347;SDS011;56497;45.058;41.926;2022-08-20T00:18:10;13.30;;;5.25;;
69347;SDS011;56497;45.058;41.926;2022-08-20T00:18:42;16.08;;;5.47;;
69347;SDS011;56497;45.058;41.926;2022-08-20T00:19:13;13.88;;;5.32;;
69347;SDS011;56497;45.058;41.926;2022-08-20T00:19:44;14.55;;;5.40;;
69347;SDS011;56497;45.058;41.926;2022-08-20T00:20:15;14.95;;;5.38;;
69347;SDS011;56497;45.058;41.926;2022-08-20T00:20:49;12.55;;;5.30;;
69347;SDS011;56497;45.058;41.926;2022-08-20T00:21:21;12.10;;;5.07;;
69347;SDS011;56497;45.058;41.926;2022-08-20T00:21:52;14.27;;;4.97;;
69347;SDS011;56497;45.058;41.926;2022-08-20T00:22:22;9.48;;;4.95;;
69347;SDS011;56497;45.058;41.926;2022-08-20T00:22:55;19.80;;;5.32;;
69347;SDS011;56497;45.058;41.926;2022-08-20T00:23:27;13.48;;;5.38;;
69347;SDS011;56497;45.058;41.926;2022-08-20T00:23:57;14.52;;;5.18;;
69347;SDS011;56497;45.058;41.926;2022-08-20T00:24:28;12.32;;;5.25;;
69347;SDS011;56497;45.058;41.926;2022-08-20T00:24:59;13.80;;;5.32;;
69347;SDS011;56497;45.058;41.926;2022-08-20T00:25:30;13.90;;;5.20;;
69347;SDS011;56497;45.058;41.926;2022-08-20T00:26:01;12.52;;;4.80;;
69347;SDS011;56497;45.058;41.926;2022-08-20T00:26:32;13.07;;;4.72;;
69347;SDS011;56497;45.058;41.926;2022-08-20T00:27:03;12.07;;;5.15;;
69347;SDS011;56497;45.058;41.926;2022-08-20T00:27:34;11.95;;;4.95;;
69347;SDS011;56497;45.058;41.926;2022-08-20T00:28:05;12.65;;;5.22;;
69347;SDS011;56497;45.058;41.926;2022-08-20T00:28:36;13.23;;;5.20;;
69347;SDS011;56497;45.058;41.926;2022-08-20T00:29:07;12.85;;;5.53;;
69347;SDS011;56497;45.058;41.926;2022-08-20T00:29:38;16.00;;;4.95;;
69347;SDS011;56497;45.058;41.926;2022-08-20T00:30:09;16.42;;;5.00;;
69347;SDS011;56497;45.058;41.926;2022-08-20T00:30:42;13.40;;;5.10;;
69347;SDS011;56497;45.058;41.926;2022-08-20T00:31:16;12.50;;;5.22;;
69347;SDS011;56497;45.058;41.926;2022-08-20T00:31:49;14.63;;;5.13;;
69347;SDS011;56497;45.058;41.926;2022-08-20T00:32:20;12.75;;;5.00;;
69347;SDS011;56497;45.058;41.926;2022-08-20T00:33:10;14.95;;;5.40;;
69347;SDS011;56497;45.058;41.926;2022-08-20T00:33:43;13.05;;;5.00;;
69347;SDS011;56497;45.058;41.926;2022-08-20T00:34:13;11.50;;;4.75;;
69347;SDS011;56497;45.058;41.926;2022-08-20T00:34:44;16.42;;;5.00;;
69347;SDS011;56497;45.058;41.926;2022-08-20T00:35:15;13.38;;;5.00;;
69347;SDS011;56497;45.058;41.926;2022-08-20T00:35:49;14.68;;;4.90;;
69347;SDS011;56497;45.058;41.926;2022-08-20T00:36:22;12.65;;;4.97;;
69347;SDS011;56497;45.058;41.926;2022-08-20T00:36:53;13.43;;;4.93;;
69347;SDS011;56497;45.058;41.926;2022-08-20T00:37:24;13.55;;;4.82;;
69347;SDS011;56497;45.058;41.926;2022-08-20T00:37:54;13.15;;;5.10;;
69347;SDS011;56497;45.058;41.926;2022-08-20T00:38:25;11.68;;;4.90;;
69347;SDS011;56497;45.058;41.926;2022-08-20T00:38:56;13.75;;;4.80;;
69347;SDS011;56497;45.058;41.926;2022-08-20T00:39:26;10.90;;;4.68;;
69347;SDS011;56497;45.058;41.926;2022-08-20T00:39:57;12.82;;;4.93;;
69347;SDS011;56497;45.058;41.926;2022-08-20T00:40:29;13.18;;;5.30;;
69347;SDS011;56497;45.058;41.926;2022-08-20T00:41:12;11.65;;;4.63;;
69347;SDS011;56497;45.058;41.926;2022-08-20T00:41:45;14.18;;;5.07;;
69347;SDS011;56497;45.058;41.926;2022-08-20T00:42:16;12.20;;;5.20;;
69347;SDS011;56497;45.058;41.926;2022-08-20T00:42:49;11.70;;;4.93;;
69347;SDS011;56497;45.058;41.926;2022-08-20T00:44:48;12.52;;;5.20;;
69347;SDS011;56497;45.058;41.926;2022-08-20T00:45:19;14.32;;;5.22;;
69347;SDS011;56497;45.058;41.926;2022-08-20T00:45:50;18.35;;;5.55;;
69347;SDS011;56497;45.058;41.926;2022-08-20T00:46:25;12.07;;;5.10;;
69347;SDS011;56497;45.058;41.926;2022-08-20T00:46:57;16.42;;;4.95;;
69347;SDS011;56497;45.058;41.926;2022-08-20T00:47:28;13.77;;;5.25;;
69347;SDS011;56497;45.058;41.926;2022-08-20T00:47:58;16.52;;;5.80;;
69347;SDS011;56497;45.058;41.926;2022-08-20T00:48:30;12.70;;;5.30;;
69347;SDS011;56497;45.058;41.926;2022-08-20T00:49:03;12.73;;;5.07;;
69347;SDS011;56497;45.058;41.926;2022-08-20T00:49:37;13.60;;;5.10;;
69347;SDS011;56497;45.058;41.926;2022-08-20T00:50:09;15.07;;;5.53;;
69347;SDS011;56497;45.058;41.926;2022-08-20T00:50:45;14.85;;;5.20;;
69347;SDS011;56497;45.058;41.926;2022-08-20T00:51:30;10.40;;;4.75;;
69347;SDS011;56497;45.058;41.926;2022-08-20T00:52:05;13.20;;;5.00;;
69347;SDS011;56497;45.058;41.926;2022-08-20T00:52:38;14.32;;;4.93;;
69347;SDS011;56497;45.058;41.926;2022-08-20T00:53:11;13.35;;;4.90;;
69347;SDS011;56497;45.058;41.926;2022-08-20T00:53:41;15.27;;;5.15;;
69347;SDS011;56497;45.058;41.926;2022-08-20T00:54:18;12.93;;;5.20;;
69347;SDS011;56497;45.058;41.926;2022-08-20T00:54:53;12.77;;;5.20;;
69347;SDS011;56497;45.058;41.926;2022-08-20T00:55:28;16.33;;;5.10;;
69347;SDS011;56497;45.058;41.926;2022-08-20T00:55:59;14.43;;;5.20;;
69347;SDS011;56497;45.058;41.926;2022-08-20T00:56:30;15.85;;;5.13;;
69347;SDS011;56497;45.058;41.926;2022-08-20T00:57:06;12.65;;;4.95;;
69347;SDS011;56497;45.058;41.926;2022-08-20T00:57:41;11.35;;;4.95;;
69347;SDS011;56497;45.058;41.926;2022-08-20T00:58:15;13.95;;;4.88;;
69347;SDS011;56497;45.058;41.926;2022-08-20T00:58:46;12.60;;;5.07;;
69347;SDS011;56497;45.058;41.926;2022-08-20T00:59:20;12.35;;;4.88;;
69347;SDS011;56497;45.058;41.926;2022-08-20T00:59:55;14.10;;;5.18;;
69347;SDS011;56497;45.058;41.926;2022-08-20T01:00:32;12.80;;;4.93;;
69347;SDS011;56497;45.058;41.926;2022-08-20T01:01:08;15.38;;;4.93;;
69347;SDS011;56497;45.058;41.926;2022-08-20T01:01:39;11.38;;;4.90;;
69347;SDS011;56497;45.058;41.926;2022-08-20T01:02:13;10.15;;;4.82;;
69347;SDS011;56497;45.058;41.926;2022-08-20T01:02:45;14.57;;;5.18;;
69347;SDS011;56497;45.058;41.926;2022-08-20T01:03:17;12.32;;;5.03;;
69347;SDS011;56497;45.058;41.926;2022-08-20T01:03:49;13.88;;;5.35;;
69347;SDS011;56497;45.058;41.926;2022-08-20T01:04:25;14.07;;;5.22;;
69347;SDS011;56497;45.058;41.926;2022-08-20T01:04:57;14.15;;;5.15;;
69347;SDS011;56497;45.058;41.926;2022-08-20T01:05:27;14.10;;;5.22;;
69347;SDS011;56497;45.058;41.926;2022-08-20T01:05:58;12.18;;;5.05;;
69347;SDS011;56497;45.058;41.926;2022-08-20T01:06:30;14.48;;;5.20;;
69347;SDS011;56497;45.058;41.926;2022-08-20T01:07:02;14.77;;;5.70;;
69347;SDS011;56497;45.058;41.926;2022-08-20T01:07:34;12.73;;;5.32;;
69347;SDS011;56497;45.058;41.926;2022-08-20T01:08:06;12.70;;;5.30;;
69347;SDS011;56497;45.058;41.926;2022-08-20T01:08:38;13.07;;;5.40;;
69347;SDS011;56497;45.058;41.926;2022-08-20T01:09:10;13.90;;;5.22;;
69347;SDS011;56497;45.058;41.926;2022-08-20T01:09:41;14.40;;;5.57;;
69347;SDS011;56497;45.058;41.926;2022-08-20T01:10:23;14.43;;;5.70;;
69347;SDS011;56497;45.058;41.926;2022-08-20T01:10:55;11.98;;;5.32;;
69347;SDS011;56497;45.058;41.926;2022-08-20T01:11:49;15.35;;;5.28;;
69347;SDS011;56497;45.058;41.926;2022-08-20T01:12:19;11.68;;;5.20;;
69347;SDS011;56497;45.058;41.926;2022-08-20T01:12:52;16.17;;;5.38;;
69347;SDS011;56497;45.058;41.926;2022-08-20T01:13:26;16.15;;;5.22;;
69347;SDS011;56497;45.058;41.926;2022-08-20T01:13:57;12.90;;;5.60;;
69347;SDS011;56497;45.058;41.926;2022-08-20T01:14:28;13.43;;;5.50;;
69347;SDS011;56497;45.058;41.926;2022-08-20T01:15:02;11.07;;;5.07;;
69347;SDS011;56497;45.058;41.926;2022-08-20T01:15:34;10.73;;;5.10;;
69347;SDS011;56497;45.058;41.926;2022-08-20T01:16:15;12.82;;;5.50;;
69347;SDS011;56497;45.058;41.926;2022-08-20T01:16:51;16.05;;;5.50;;
69347;SDS011;56497;45.058;41.926;2022-08-20T01:17:29;12.20;;;5.50;;
69347;SDS011;56497;45.058;41.926;2022-08-20T01:18:03;15.43;;;5.75;;
69347;SDS011;56497;45.058;41.926;2022-08-20T01:18:35;15.73;;;5.50;;
69347;SDS011;56497;45.058;41.926;2022-08-20T01:19:08;15.35;;;5.85;;
69347;SDS011;56497;45.058;41.926;2022-08-20T01:19:42;14.82;;;5.97;;
69347;SDS011;56497;45.058;41.926;2022-08-20T01:20:24;13.50;;;5.57;;
69347;SDS011;56497;45.058;41.926;2022-08-20T01:20:57;14.52;;;5.80;;
69347;SDS011;56497;45.058;41.926;2022-08-20T01:21:29;16.85;;;5.68;;
69347;SDS011;56497;45.058;41.926;2022-08-20T01:22:03;13.93;;;5.20;;
69347;SDS011;56497;45.058;41.926;2022-08-20T01:24:02;13.20;;;5.20;;
69347;SDS011;56497;45.058;41.926;2022-08-20T01:24:36;10.68;;;5.20;;
69347;SDS011;56497;45.058;41.926;2022-08-20T01:25:12;12.00;;;5.10;;
69347;SDS011;56497;45.058;41.926;2022-08-20T01:26:39;11.98;;;4.88;;
69347;SDS011;56497;45.058;41.926;2022-08-20T01:27:13;12.68;;;4.75;;
69347;SDS011;56497;45.058;41.926;2022-08-20T01:27:44;13.05;;;5.22;;
69347;SDS011;56497;45.058;41.926;2022-08-20T01:28:17;13.38;;;5.30;;
69347;SDS011;56497;45.058;41.926;2022-08-20T01:28:52;14.48;;;5.05;;
69347;SDS011;56497;45.058;41.926;2022-08-20T01:29:28;13.48;;;5.35;;
69347;SDS011;56497;45.058;41.926;2022-08-20T01:30:04;12.25;;;5.60;;
69347;SDS011;56497;45.058;41.926;2022-08-20T01:30:36;14.10;;;5.30;;
69347;SDS011;56497;45.058;41.926;2022-08-20T01:31:08;13.45;;;5.10;;
69347;SDS011;56497;45.058;41.926;2022-08-20T01:31:44;15.00;;;5.00;;
69347;SDS011;56497;45.058;41.926;2022-08-20T01:32:15;12.52;;;5.30;;
69347;SDS011;56497;45.058;41.926;2022-08-20T01:32:46;16.55;;;5.45;;
69347;SDS011;56497;45.058;41.926;2022-08-20T01:33:17;13.98;;;5.35;;
69347;SDS011;56497;45.058;41.926;2022-08-20T01:33:49;16.40;;;5.53;;
69347;SDS011;56497;45.058;41.926;2022-08-20T01:34:21;14.90;;;5.43;;
69347;SDS011;56497;45.058;41.926;2022-08-20T01:34:52;17.15;;;5.32;;
69347;SDS011;56497;45.058;41.926;2022-08-20T01:35:24;14.20;;;5.55;;
69347;SDS011;56497;45.058;41.926;2022-08-20T01:35:55;13.35;;;5.18;;
69347;SDS011;56497;45.058;41.926;2022-08-20T01:36:45;16.35;;;5.60;;
69347;SDS011;56497;45.058;41.926;2022-08-20T01:37:21;18.27;;;5.70;;
69347;SDS011;56497;45.058;41.926;2022-08-20T01:37:52;14.00;;;5.57;;
69347;SDS011;56497;45.058;41.926;2022-08-20T01:38:23;13.48;;;5.70;;
69347;SDS011;56497;45.058;41.926;2022-08-20T01:38:54;13.38;;;5.65;;
69347;SDS011;56497;45.058;41.926;2022-08-20T01:39:26;13.88;;;5.82;;
69347;SDS011;56497;45.058;41.926;2022-08-20T01:39:59;14.52;;;5.82;;
69347;SDS011;56497;45.058;41.926;2022-08-20T01:40:40;11.05;;;5.60;;
69347;SDS011;56497;45.058;41.926;2022-08-20T01:42:54;14.52;;;5.47;;
69347;SDS011;56497;45.058;41.926;2022-08-20T01:43:24;14.73;;;5.63;;
69347;SDS011;56497;45.058;41.926;2022-08-20T01:43:56;12.88;;;5.18;;
69347;SDS011;56497;45.058;41.926;2022-08-20T01:44:27;13.98;;;5.60;;
69347;SDS011;56497;45.058;41.926;2022-08-20T01:44:58;15.15;;;5.70;;
69347;SDS011;56497;45.058;41.926;2022-08-20T01:45:29;16.10;;;5.95;;
69347;SDS011;56497;45.058;41.926;2022-08-20T01:46:00;16.05;;;5.88;;
69347;SDS011;56497;45.058;41.926;2022-08-20T01:46:36;13.15;;;5.65;;
69347;SDS011;56497;45.058;41.926;2022-08-20T01:47:21;13.18;;;5.53;;
69347;SDS011;56497;45.058;41.926;2022-08-20T01:47:54;14.68;;;5.70;;
69347;SDS011;56497;45.058;41.926;2022-08-20T01:48:24;18.48;;;5.88;;
69347;SDS011;56497;45.058;41.926;2022-08-20T01:48:55;16.05;;;6.05;;
69347;SDS011;56497;45.058;41.926;2022-08-20T01:49:28;18.75;;;6.07;;
69347;SDS011;56497;45.058;41.926;2022-08-20T01:50:34;14.23;;;5.90;;
69347;SDS011;56497;45.058;41.926;2022-08-20T01:51:07;13.43;;;5.85;;
69347;SDS011;56497;45.058;41.926;2022-08-20T01:51:43;16.40;;;6.00;;
69347;SDS011;56497;45.058;41.926;2022-08-20T01:52:16;14.70;;;6.05;;
69347;SDS011;56497;45.058;41.926;2022-08-20T01:53:02;13.32;;;5.60;;
69347;SDS011;56497;45.058;41.926;2022-08-20T01:53:41;16.05;;;6.03;;
69347;SDS011;56497;45.058;41.926;2022-08-20T01:54:20;17.63;;;5.88;;
69347;SDS011;56497;45.058;41.926;2022-08-20T01:54:51;15.48;;;6.07;;
69347;SDS011;56497;45.058;41.926;2022-08-20T01:55:22;14.43;;;6.15;;
69347;SDS011;56497;45.058;41.926;2022-08-20T01:55:53;16.85;;;6.18;;
69347;SDS011;56497;45.058;41.926;2022-08-20T01:56:25;17.60;;;5.90;;
69347;SDS011;56497;45.058;41.926;2022-08-20T01:57:07;14.50;;;6.38;;
69347;SDS011;56497;45.058;41.926;2022-08-20T01:57:41;13.50;;;6.22;;
69347;SDS011;56497;45.058;41.926;2022-08-20T01:58:12;15.02;;;5.88;;
69347;SDS011;56497;45.058;41.926;2022-08-20T01:58:44;16.27;;;6.20;;
69347;SDS011;56497;45.058;41.926;2022-08-20T01:59:18;14.77;;;6.55;;
69347;SDS011;56497;45.058;41.926;2022-08-20T01:59:50;17.85;;;6.28;;
69347;SDS011;56497;45.058;41.926;2022-08-20T02:00:22;18.73;;;6.22;;
69347;SDS011;56497;45.058;41.926;2022-08-20T02:00:53;16.48;;;5.88;;
69347;SDS011;56497;45.058;41.926;2022-08-20T02:01:32;13.73;;;6.30;;
69347;SDS011;56497;45.058;41.926;2022-08-20T02:02:05;18.73;;;6.00;;
69347;SDS011;56497;45.058;41.926;2022-08-20T02:02:36;17.83;;;6.15;;
69347;SDS011;56497;45.058;41.926;2022-08-20T02:03:06;16.85;;;6.55;;
69347;SDS011;56497;45.058;41.926;2022-08-20T02:03:37;14.18;;;6.45;;
69347;SDS011;56497;45.058;41.926;2022-08-20T02:04:09;14.63;;;6.35;;
69347;SDS011;56497;45.058;41.926;2022-08-20T02:04:40;15.23;;;6.15;;
69347;SDS011;56497;45.058;41.926;2022-08-20T02:05:11;20.70;;;6.40;;
69347;SDS011;56497;45.058;41.926;2022-08-20T02:05:42;14.52;;;6.40;;
69347;SDS011;56497;45.058;41.926;2022-08-20T02:06:12;14.35;;;6.13;;
69347;SDS011;56497;45.058;41.926;2022-08-20T02:06:47;16.58;;;6.43;;
69347;SDS011;56497;45.058;41.926;2022-08-20T02:07:21;15.13;;;5.72;;
69347;SDS011;56497;45.058;41.926;2022-08-20T02:07:52;18.20;;;6.00;;
69347;SDS011;56497;45.058;41.926;2022-08-20T02:08:24;13.75;;;5.80;;
69347;SDS011;56497;45.058;41.926;2022-08-20T02:08:56;18.13;;;6.00;;
69347;SDS011;56497;45.058;41.926;2022-08-20T02:09:31;15.25;;;5.93;;
69347;SDS011;56497;45.058;41.926;2022-08-20T02:10:08;15.18;;;5.82;;
69347;SDS011;56497;45.058;41.926;2022-08-20T02:10:41;13.63;;;6.07;;
69347;SDS011;56497;45.058;41.926;2022-08-20T02:11:13;17.55;;;6.15;;
69347;SDS011;56497;45.058;41.926;2022-08-20T02:11:44;15.65;;;6.10;;
69347;SDS011;56497;45.058;41.926;2022-08-20T02:12:16;16.85;;;6.30;;
69347;SDS011;56497;45.058;41.926;2022-08-20T02:12:47;18.58;;;5.80;;
69347;SDS011;56497;45.058;41.926;2022-08-20T02:13:18;17.08;;;6.18;;
69347;SDS011;56497;45.058;41.926;2022-08-20T02:13:50;17.48;;;6.07;;
69347;SDS011;56497;45.058;41.926;2022-08-20T02:14:22;17.58;;;6.20;;
69347;SDS011;56497;45.058;41.926;2022-08-20T02:14:54;14.27;;;5.80;;
69347;SDS011;56497;45.058;41.926;2022-08-20T02:15:26;17.13;;;6.07;;
69347;SDS011;56497;45.058;41.926;2022-08-20T02:15:57;15.57;;;6.20;;
69347;SDS011;56497;45.058;41.926;2022-08-20T02:16:29;15.35;;;6.22;;
69347;SDS011;56497;45.058;41.926;2022-08-20T02:17:01;15.48;;;5.78;;
69347;SDS011;56497;45.058;41.926;2022-08-20T02:17:32;13.50;;;6.00;;
69347;SDS011;56497;45.058;41.926;2022-08-20T02:18:04;19.10;;;6.30;;
69347;SDS011;56497;45.058;41.926;2022-08-20T02:18:37;17.45;;;6.18;;
69347;SDS011;56497;45.058;41.926;2022-08-20T02:19:10;19.35;;;6.20;;
69347;SDS011;56497;45.058;41.926;2022-08-20T02:19:54;16.98;;;6.00;;
69347;SDS011;56497;45.058;41.926;2022-08-20T02:20:28;15.85;;;5.90;;
69347;SDS011;56497;45.058;41.926;2022-08-20T02:21:01;15.05;;;5.68;;
69347;SDS011;56497;45.058;41.926;2022-08-20T02:21:33;16.52;;;6.15;;
69347;SDS011;56497;45.058;41.926;2022-08-20T02:22:13;14.10;;;6.07;;
69347;SDS011;56497;45.058;41.926;2022-08-20T02:22:50;15.55;;;5.88;;
69347;SDS011;56497;45.058;41.926;2022-08-20T02:23:24;14.68;;;5.45;;
69347;SDS011;56497;45.058;41.926;2022-08-20T02:23:56;14.57;;;5.90;;
69347;SDS011;56497;45.058;41.926;2022-08-20T02:24:27;17.00;;;5.90;;
69347;SDS011;56497;45.058;41.926;2022-08-20T02:24:59;15.48;;;5.47;;
69347;SDS011;56497;45.058;41.926;2022-08-20T02:25:31;16.50;;;5.82;;
69347;SDS011;56497;45.058;41.926;2022-08-20T02:26:03;19.52;;;6.18;;
69347;SDS011;56497;45.058;41.926;2022-08-20T02:26:36;14.05;;;5.68;;
69347;SDS011;56497;45.058;41.926;2022-08-20T02:27:08;17.55;;;6.18;;
69347;SDS011;56497;45.058;41.926;2022-08-20T02:27:39;15.25;;;5.90;;
69347;SDS011;56497;45.058;41.926;2022-08-20T02:28:13;15.45;;;5.95;;
69347;SDS011;56497;45.058;41.926;2022-08-20T02:28:47;13.15;;;6.07;;
69347;SDS011;56497;45.058;41.926;2022-08-20T02:29:19;15.68;;;5.95;;
69347;SDS011;56497;45.058;41.926;2022-08-20T02:29:51;18.58;;;6.30;;
69347;SDS011;56497;45.058;41.926;2022-08-20T02:30:32;16.05;;;6.10;;
69347;SDS011;56497;45.058;41.926;2022-08-20T02:31:05;13.18;;;5.93;;
69347;SDS011;56497;45.058;41.926;2022-08-20T02:31:37;18.45;;;5.82;;
69347;SDS011;56497;45.058;41.926;2022-08-20T02:32:09;17.02;;;6.18;;
69347;SDS011;56497;45.058;41.926;2022-08-20T02:32:40;12.23;;;5.88;;
69347;SDS011;56497;45.058;41.926;2022-08-20T02:33:12;15.88;;;5.47;;
69347;SDS011;56497;45.058;41.926;2022-08-20T02:33:45;13.13;;;5.78;;
69347;SDS011;56497;45.058;41.926;2022-08-20T02:34:16;18.35;;;6.18;;
69347;SDS011;56497;45.058;41.926;2022-08-20T02:34:47;17.80;;;6.63;;
69347;SDS011;56497;45.058;41.926;2022-08-20T02:35:18;16.40;;;6.38;;
69347;SDS011;56497;45.058;41.926;2022-08-20T02:35:49;12.88;;;6.15;;
69347;SDS011;56497;45.058;41.926;2022-08-20T02:36:21;15.65;;;6.72;;
69347;SDS011;56497;45.058;41.926;2022-08-20T02:36:51;16.27;;;6.47;;
69347;SDS011;56497;45.058;41.926;2022-08-20T02:37:23;15.32;;;6.90;;
69347;SDS011;56497;45.058;41.926;2022-08-20T02:37:54;16.05;;;6.35;;
69347;SDS011;56497;45.058;41.926;2022-08-20T02:38:25;14.38;;;6.35;;
69347;SDS011;56497;45.058;41.926;2022-08-20T02:38:55;15.23;;;6.38;;
69347;SDS011;56497;45.058;41.926;2022-08-20T02:39:26;17.05;;;6.32;;
69347;SDS011;56497;45.058;41.926;2022-08-20T02:39:57;16.10;;;6.30;;
69347;SDS011;56497;45.058;41.926;2022-08-20T02:40:28;20.17;;;6.25;;
69347;SDS011;56497;45.058;41.926;2022-08-20T02:41:00;17.02;;;6.15;;
69347;SDS011;56497;45.058;41.926;2022-08-20T02:41:31;17.13;;;6.28;;
69347;SDS011;56497;45.058;41.926;2022-08-20T02:42:03;15.77;;;6.18;;
69347;SDS011;56497;45.058;41.926;2022-08-20T02:42:34;15.10;;;6.75;;
69347;SDS011;56497;45.058;41.926;2022-08-20T02:43:05;16.92;;;6.78;;
69347;SDS011;56497;45.058;41.926;2022-08-20T02:43:36;18.05;;;6.45;;
69347;SDS011;56497;45.058;41.926;2022-08-20T02:44:08;19.48;;;6.70;;
69347;SDS011;56497;45.058;41.926;2022-08-20T02:44:40;18.20;;;6.13;;
69347;SDS011;56497;45.058;41.926;2022-08-20T02:45:12;14.70;;;6.50;;
69347;SDS011;56497;45.058;41.926;2022-08-20T02:45:44;19.50;;;6.22;;
69347;SDS011;56497;45.058;41.926;2022-08-20T02:46:15;16.85;;;6.50;;
69347;SDS011;56497;45.058;41.926;2022-08-20T02:46:48;17.25;;;6.22;;
69347;SDS011;56497;45.058;41.926;2022-08-20T02:47:19;16.38;;;6.43;;
69347;SDS011;56497;45.058;41.926;2022-08-20T02:47:49;16.27;;;6.65;;
69347;SDS011;56497;45.058;41.926;2022-08-20T02:48:25;16.42;;;6.35;;
69347;SDS011;56497;45.058;41.926;2022-08-20T02:48:56;15.45;;;6.40;;
69347;SDS011;56497;45.058;41.926;2022-08-20T02:49:27;14.07;;;6.32;;
69347;SDS011;56497;45.058;41.926;2022-08-20T02:49:58;13.90;;;6.15;;
69347;SDS011;56497;45.058;41.926;2022-08-20T02:50:28;16.17;;;6.40;;
69347;SDS011;56497;45.058;41.926;2022-08-20T02:51:00;15.15;;;6.57;;
69347;SDS011;56497;45.058;41.926;2022-08-20T02:51:35;17.23;;;6.50;;
69347;SDS011;56497;45.058;41.926;2022-08-20T02:52:06;14.30;;;6.05;;
69347;SDS011;56497;45.058;41.926;2022-08-20T02:52:36;13.82;;;6.15;;
69347;SDS011;56497;45.058;41.926;2022-08-20T02:53:07;15.68;;;6.28;;
69347;SDS011;56497;45.058;41.926;2022-08-20T02:53:39;15.85;;;6.60;;
69347;SDS011;56497;45.058;41.926;2022-08-20T02:54:11;17.60;;;6.72;;
69347;SDS011;56497;45.058;41.926;2022-08-20T02:54:42;12.35;;;6.50;;
69347;SDS011;56497;45.058;41.926;2022-08-20T02:55:13;17.98;;;6.70;;
69347;SDS011;56497;45.058;41.926;2022-08-20T02:55:45;14.85;;;6.72;;
69347;SDS011;56497;45.058;41.926;2022-08-20T02:56:16;16.83;;;6.43;;
69347;SDS011;56497;45.058;41.926;2022-08-20T02:56:47;17.08;;;6.63;;
69347;SDS011;56497;45.058;41.926;2022-08-20T02:57:18;18.00;;;6.82;;
69347;SDS011;56497;45.058;41.926;2022-08-20T02:57:49;16.02;;;6.75;;
69347;SDS011;56497;45.058;41.926;2022-08-20T02:58:23;17.65;;;6.88;;
69347;SDS011;56497;45.058;41.926;2022-08-20T02:58:54;15.07;;;6.78;;
69347;SDS011;56497;45.058;41.926;2022-08-20T02:59:24;14.13;;;6.53;;
69347;SDS011;56497;45.058;41.926;2022-08-20T02:59:55;17.23;;;6.97;;
69347;SDS011;56497;45.058;41.926;2022-08-20T03:00:27;15.70;;;7.15;;
69347;SDS011;56497;45.058;41.926;2022-08-20T03:01:00;16.90;;;6.57;;
69347;SDS011;56497;45.058;41.926;2022-08-20T03:01:32;18.00;;;7.03;;
69347;SDS011;56497;45.058;41.926;2022-08-20T03:02:03;15.90;;;7.25;;
69347;SDS011;56497;45.058;41.926;2022-08-20T03:02:34;13.52;;;6.50;;
69347;SDS011;56497;45.058;41.926;2022-08-20T03:03:08;14.38;;;6.25;;
69347;SDS011;56497;45.058;41.926;2022-08-20T03:03:40;22.20;;;7.65;;
69347;SDS011;56497;45.058;41.926;2022-08-20T03:04:11;15.23;;;7.40;;
69347;SDS011;56497;45.058;41.926;2022-08-20T03:04:42;17.67;;;7.00;;
69347;SDS011;56497;45.058;41.926;2022-08-20T03:05:13;18.77;;;7.18;;
69347;SDS011;56497;45.058;41.926;2022-08-20T03:05:44;17.42;;;7.22;;
69347;SDS011;56497;45.058;41.926;2022-08-20T03:06:15;18.48;;;6.85;;
69347;SDS011;56497;45.058;41.926;2022-08-20T03:06:46;16.88;;;6.82;;
69347;SDS011;56497;45.058;41.926;2022-08-20T03:07:17;18.00;;;7.15;;
69347;SDS011;56497;45.058;41.926;2022-08-20T03:07:49;18.20;;;6.35;;
69347;SDS011;56497;45.058;41.926;2022-08-20T03:08:23;17.88;;;6.72;;
69347;SDS011;56497;45.058;41.926;2022-08-20T03:08:54;19.20;;;7.05;;
69347;SDS011;56497;45.058;41.926;2022-08-20T03:09:25;16.55;;;7.13;;
69347;SDS011;56497;45.058;41.926;2022-08-20T03:09:56;16.10;;;7.30;;
69347;SDS011;56497;45.058;41.926;2022-08-20T03:10:28;16.45;;;7.30;;
69347;SDS011;56497;45.058;41.926;2022-08-20T03:11:02;27.65;;;15.13;;
69347;SDS011;56497;45.058;41.926;2022-08-20T03:11:33;19.35;;;8.15;;
69347;SDS011;56497;45.058;41.926;2022-08-20T03:12:04;18.50;;;7.30;;
69347;SDS011;56497;45.058;41.926;2022-08-20T03:12:37;17.02;;;6.80;;
69347;SDS011;56497;45.058;41.926;2022-08-20T03:13:08;15.70;;;6.68;;
69347;SDS011;56497;45.058;41.926;2022-08-20T03:13:41;14.80;;;6.75;;
69347;SDS011;56497;45.058;41.926;2022-08-20T03:14:12;16.42;;;6.38;;
69347;SDS011;56497;45.058;41.926;2022-08-20T03:14:43;16.55;;;6.95;;
69347;SDS011;56497;45.058;41.926;2022-08-20T03:15:13;20.38;;;7.32;;
69347;SDS011;56497;45.058;41.926;2022-08-20T03:15:45;16.08;;;7.05;;
69347;SDS011;56497;45.058;41.926;2022-08-20T03:16:19;14.70;;;6.80;;
69347;SDS011;56497;45.058;41.926;2022-08-20T03:16:49;14.65;;;6.80;;
69347;SDS011;56497;45.058;41.926;2022-08-20T03:17:20;15.80;;;7.00;;